sensor_id;sensor_type;location;lat;lon;timestamp;P1;durP1;ratioP1;P2;durP2;ratioP2
80423;SDS011;69765;47.668;19.326;2023-04-28T16:31:23;3.65;;;1.70;;
80423;SDS011;69765;47.668;19.326;2023-04-28T16:34:24;2.78;;;1.98;;
80423;SDS011;69765;47.668;19.326;2023-04-28T16:37:24;2.90;;;2.60;;
80423;SDS011;69765;47.668;19.326;2023-04-28T16:40:25;4.10;;;1.85;;
80423;SDS011;69765;47.668;19.326;2023-04-28T16:43:25;3.45;;;2.13;;
80423;SDS011;69765;47.668;19.326;2023-04-28T16:48:37;2.67;;;1.50;;
80423;SDS011;69765;47.668;19.326;2023-04-28T16:51:39;2.97;;;1.73;;
80423;SDS011;69765;47.668;19.326;2023-04-28T16:54:41;2.20;;;1.52;;
80423;SDS011;69765;47.668;19.326;2023-04-28T16:57:43;3.10;;;1.52;;
80423;SDS011;69765;47.668;19.326;2023-04-28T17:00:47;2.67;;;1.80;;
80423;SDS011;69765;47.668;19.326;2023-04-28T17:03:49;2.00;;;1.30;;
80423;SDS011;69765;47.668;19.326;2023-04-28T17:06:52;2.10;;;1.70;;
80423;SDS011;69765;47.668;19.326;2023-04-28T17:09:55;2.55;;;1.50;;
80423;SDS011;69765;47.668;19.326;2023-04-28T17:12:57;2.90;;;1.52;;
80423;SDS011;69765;47.668;19.326;2023-04-28T17:15:59;2.88;;;1.45;;
80423;SDS011;69765;47.668;19.326;2023-04-28T17:19:03;4.90;;;3.00;;
80423;SDS011;69765;47.668;19.326;2023-04-28T17:22:06;9.73;;;3.38;;
80423;SDS011;69765;47.668;19.326;2023-04-28T17:25:09;5.28;;;3.00;;
80423;SDS011;69765;47.668;19.326;2023-04-28T17:28:12;3.38;;;2.33;;
80423;SDS011;69765;47.668;19.326;2023-04-28T17:31:15;4.53;;;2.25;;
80423;SDS011;69765;47.668;19.326;2023-04-28T17:34:17;3.60;;;2.30;;
80423;SDS011;69765;47.668;19.326;2023-04-28T17:37:21;4.63;;;2.35;;
80423;SDS011;69765;47.668;19.326;2023-04-28T17:40:23;4.10;;;1.95;;
80423;SDS011;69765;47.668;19.326;2023-04-28T17:43:26;9.23;;;2.67;;
80423;SDS011;69765;47.668;19.326;2023-04-28T17:46:28;3.28;;;1.92;;
80423;SDS011;69765;47.668;19.326;2023-04-28T17:49:31;3.60;;;2.03;;
80423;SDS011;69765;47.668;19.326;2023-04-28T17:52:33;2.45;;;1.73;;
80423;SDS011;69765;47.668;19.326;2023-04-28T17:55:37;2.78;;;1.95;;
80423;SDS011;69765;47.668;19.326;2023-04-28T17:58:40;4.05;;;2.00;;
80423;SDS011;69765;47.668;19.326;2023-04-28T18:01:43;3.67;;;2.28;;
80423;SDS011;69765;47.668;19.326;2023-04-28T18:04:45;4.22;;;2.90;;
80423;SDS011;69765;47.668;19.326;2023-04-28T18:07:47;4.90;;;2.40;;
80423;SDS011;69765;47.668;19.326;2023-04-28T18:10:50;4.57;;;2.25;;
80423;SDS011;69765;47.668;19.326;2023-04-28T18:13:52;4.22;;;2.40;;
80423;SDS011;69765;47.668;19.326;2023-04-28T18:16:55;3.58;;;2.25;;
80423;SDS011;69765;47.668;19.326;2023-04-28T18:19:57;5.22;;;2.42;;
80423;SDS011;69765;47.668;19.326;2023-04-28T18:23:00;5.72;;;2.40;;
80423;SDS011;69765;47.668;19.326;2023-04-28T18:26:03;3.45;;;2.42;;
80423;SDS011;69765;47.668;19.326;2023-04-28T18:29:07;4.38;;;2.45;;
80423;SDS011;69765;47.668;19.326;2023-04-28T18:32:09;3.90;;;2.53;;
80423;SDS011;69765;47.668;19.326;2023-04-28T18:35:15;4.55;;;2.60;;
80423;SDS011;69765;47.668;19.326;2023-04-28T18:38:18;3.47;;;2.28;;
80423;SDS011;69765;47.668;19.326;2023-04-28T18:41:21;4.68;;;2.72;;
80423;SDS011;69765;47.668;19.326;2023-04-28T18:44:23;3.55;;;2.22;;
80423;SDS011;69765;47.668;19.326;2023-04-28T18:47:25;4.97;;;2.50;;
80423;SDS011;69765;47.668;19.326;2023-04-28T18:50:28;5.03;;;2.45;;
80423;SDS011;69765;47.668;19.326;2023-04-28T18:53:31;3.80;;;2.30;;
80423;SDS011;69765;47.668;19.326;2023-04-28T18:56:34;3.30;;;2.45;;
80423;SDS011;69765;47.668;19.326;2023-04-28T18:59:40;3.35;;;2.63;;
80423;SDS011;69765;47.668;19.326;2023-04-28T19:02:42;3.53;;;2.75;;
80423;SDS011;69765;47.668;19.326;2023-04-28T19:05:46;5.07;;;2.33;;
80423;SDS011;69765;47.668;19.326;2023-04-28T19:08:49;4.28;;;2.10;;
80423;SDS011;69765;47.668;19.326;2023-04-28T19:11:51;4.15;;;2.50;;
80423;SDS011;69765;47.668;19.326;2023-04-28T19:14:59;3.30;;;2.20;;
80423;SDS011;69765;47.668;19.326;2023-04-28T19:18:02;3.28;;;2.50;;
80423;SDS011;69765;47.668;19.326;2023-04-28T19:21:16;3.65;;;2.20;;
80423;SDS011;69765;47.668;19.326;2023-04-28T19:24:20;4.32;;;2.63;;
80423;SDS011;69765;47.668;19.326;2023-04-28T19:27:24;4.78;;;2.65;;
80423;SDS011;69765;47.668;19.326;2023-04-28T19:30:29;4.30;;;2.85;;
80423;SDS011;69765;47.668;19.326;2023-04-28T19:33:34;4.47;;;2.75;;
80423;SDS011;69765;47.668;19.326;2023-04-28T19:36:38;4.03;;;2.80;;
80423;SDS011;69765;47.668;19.326;2023-04-28T19:39:42;4.78;;;2.95;;
80423;SDS011;69765;47.668;19.326;2023-04-28T19:42:45;3.65;;;2.63;;
80423;SDS011;69765;47.668;19.326;2023-04-28T19:45:47;4.30;;;2.97;;
80423;SDS011;69765;47.668;19.326;2023-04-28T19:48:50;4.70;;;3.05;;
80423;SDS011;69765;47.668;19.326;2023-04-28T19:51:53;4.70;;;3.33;;
80423;SDS011;69765;47.668;19.326;2023-04-28T19:54:56;4.97;;;3.05;;
80423;SDS011;69765;47.668;19.326;2023-04-28T19:57:59;4.22;;;3.35;;
80423;SDS011;69765;47.668;19.326;2023-04-28T20:01:04;4.55;;;2.97;;
80423;SDS011;69765;47.668;19.326;2023-04-28T20:04:08;4.70;;;2.78;;
80423;SDS011;69765;47.668;19.326;2023-04-28T20:07:10;4.78;;;2.78;;
80423;SDS011;69765;47.668;19.326;2023-04-28T20:10:13;5.95;;;3.38;;
80423;SDS011;69765;47.668;19.326;2023-04-28T20:13:15;5.20;;;2.85;;
80423;SDS011;69765;47.668;19.326;2023-04-28T20:16:22;4.65;;;2.78;;
80423;SDS011;69765;47.668;19.326;2023-04-28T20:19:25;5.68;;;3.10;;
80423;SDS011;69765;47.668;19.326;2023-04-28T20:22:28;4.43;;;2.60;;
80423;SDS011;69765;47.668;19.326;2023-04-28T20:25:33;3.78;;;2.67;;
80423;SDS011;69765;47.668;19.326;2023-04-28T20:28:37;4.70;;;2.95;;
80423;SDS011;69765;47.668;19.326;2023-04-28T20:31:39;4.68;;;2.60;;
80423;SDS011;69765;47.668;19.326;2023-04-28T20:34:42;3.33;;;2.30;;
80423;SDS011;69765;47.668;19.326;2023-04-28T20:37:45;3.58;;;2.22;;
80423;SDS011;69765;47.668;19.326;2023-04-28T20:40:48;3.30;;;2.53;;
80423;SDS011;69765;47.668;19.326;2023-04-28T20:43:50;3.30;;;2.55;;
80423;SDS011;69765;47.668;19.326;2023-04-28T20:46:53;3.97;;;2.60;;
80423;SDS011;69765;47.668;19.326;2023-04-28T20:49:56;3.63;;;2.30;;
80423;SDS011;69765;47.668;19.326;2023-04-28T20:52:58;3.63;;;2.13;;
80423;SDS011;69765;47.668;19.326;2023-04-28T20:56:01;3.97;;;2.65;;
80423;SDS011;69765;47.668;19.326;2023-04-28T20:59:03;4.20;;;2.42;;
80423;SDS011;69765;47.668;19.326;2023-04-28T21:02:05;3.28;;;2.03;;
80423;SDS011;69765;47.668;19.326;2023-04-28T21:05:08;3.08;;;2.08;;
80423;SDS011;69765;47.668;19.326;2023-04-28T21:08:11;3.60;;;2.35;;
80423;SDS011;69765;47.668;19.326;2023-04-28T21:11:14;4.68;;;2.72;;
80423;SDS011;69765;47.668;19.326;2023-04-28T21:14:17;3.97;;;2.75;;
80423;SDS011;69765;47.668;19.326;2023-04-28T21:17:19;3.55;;;2.35;;
80423;SDS011;69765;47.668;19.326;2023-04-28T21:20:22;3.90;;;2.60;;
80423;SDS011;69765;47.668;19.326;2023-04-28T21:23:25;3.28;;;2.55;;
80423;SDS011;69765;47.668;19.326;2023-04-28T21:26:27;3.60;;;2.50;;
80423;SDS011;69765;47.668;19.326;2023-04-28T21:29:29;3.90;;;2.60;;
80423;SDS011;69765;47.668;19.326;2023-04-28T21:32:32;3.83;;;2.22;;
80423;SDS011;69765;47.668;19.326;2023-04-28T21:35:34;2.65;;;2.08;;
80423;SDS011;69765;47.668;19.326;2023-04-28T21:38:37;3.40;;;2.45;;
80423;SDS011;69765;47.668;19.326;2023-04-28T21:41:39;7.30;;;3.22;;
80423;SDS011;69765;47.668;19.326;2023-04-28T21:44:42;3.97;;;2.85;;
80423;SDS011;69765;47.668;19.326;2023-04-28T21:47:44;3.47;;;2.17;;
80423;SDS011;69765;47.668;19.326;2023-04-28T21:50:47;3.00;;;2.35;;
80423;SDS011;69765;47.668;19.326;2023-04-28T21:53:49;3.83;;;2.60;;
80423;SDS011;69765;47.668;19.326;2023-04-28T21:56:52;3.03;;;2.40;;
80423;SDS011;69765;47.668;19.326;2023-04-28T21:59:54;3.42;;;2.63;;
80423;SDS011;69765;47.668;19.326;2023-04-28T22:02:56;3.20;;;2.25;;
80423;SDS011;69765;47.668;19.326;2023-04-28T22:05:59;3.25;;;2.67;;
80423;SDS011;69765;47.668;19.326;2023-04-28T22:09:02;3.78;;;2.50;;
80423;SDS011;69765;47.668;19.326;2023-04-28T22:12:05;4.20;;;2.88;;
80423;SDS011;69765;47.668;19.326;2023-04-28T22:15:08;2.70;;;2.40;;
80423;SDS011;69765;47.668;19.326;2023-04-28T22:18:11;2.92;;;1.95;;
80423;SDS011;69765;47.668;19.326;2023-04-28T22:21:13;3.58;;;2.40;;
80423;SDS011;69765;47.668;19.326;2023-04-28T22:24:15;3.72;;;2.20;;
80423;SDS011;69765;47.668;19.326;2023-04-28T22:27:19;3.20;;;2.45;;
80423;SDS011;69765;47.668;19.326;2023-04-28T22:30:21;3.35;;;2.67;;
80423;SDS011;69765;47.668;19.326;2023-04-28T22:33:27;3.30;;;2.22;;
80423;SDS011;69765;47.668;19.326;2023-04-28T22:36:29;3.83;;;2.67;;
80423;SDS011;69765;47.668;19.326;2023-04-28T22:39:31;3.75;;;2.17;;
80423;SDS011;69765;47.668;19.326;2023-04-28T22:42:34;3.00;;;2.22;;
80423;SDS011;69765;47.668;19.326;2023-04-28T22:45:37;3.28;;;2.58;;
80423;SDS011;69765;47.668;19.326;2023-04-28T22:48:40;3.08;;;2.05;;
80423;SDS011;69765;47.668;19.326;2023-04-28T22:51:43;3.90;;;2.60;;
80423;SDS011;69765;47.668;19.326;2023-04-28T22:54:45;3.08;;;2.35;;
80423;SDS011;69765;47.668;19.326;2023-04-28T22:57:47;2.92;;;2.20;;
80423;SDS011;69765;47.668;19.326;2023-04-28T23:00:50;2.70;;;2.13;;
80423;SDS011;69765;47.668;19.326;2023-04-28T23:03:52;3.55;;;2.40;;
80423;SDS011;69765;47.668;19.326;2023-04-28T23:06:54;2.65;;;2.00;;
80423;SDS011;69765;47.668;19.326;2023-04-28T23:09:57;3.20;;;2.20;;
80423;SDS011;69765;47.668;19.326;2023-04-28T23:12:59;2.97;;;2.20;;
80423;SDS011;69765;47.668;19.326;2023-04-28T23:16:02;2.83;;;2.05;;
80423;SDS011;69765;47.668;19.326;2023-04-28T23:19:04;3.20;;;1.92;;
80423;SDS011;69765;47.668;19.326;2023-04-28T23:22:07;3.45;;;2.45;;
80423;SDS011;69765;47.668;19.326;2023-04-28T23:25:09;2.65;;;2.20;;
80423;SDS011;69765;47.668;19.326;2023-04-28T23:28:11;2.72;;;2.00;;
80423;SDS011;69765;47.668;19.326;2023-04-28T23:31:14;3.13;;;2.30;;
80423;SDS011;69765;47.668;19.326;2023-04-28T23:34:16;2.67;;;2.10;;
80423;SDS011;69765;47.668;19.326;2023-04-28T23:37:20;2.67;;;2.08;;
80423;SDS011;69765;47.668;19.326;2023-04-28T23:40:22;2.90;;;1.80;;
80423;SDS011;69765;47.668;19.326;2023-04-28T23:43:24;2.72;;;2.17;;
80423;SDS011;69765;47.668;19.326;2023-04-28T23:46:26;2.50;;;1.90;;
80423;SDS011;69765;47.668;19.326;2023-04-28T23:49:29;2.58;;;1.92;;
80423;SDS011;69765;47.668;19.326;2023-04-28T23:52:32;3.17;;;2.20;;
80423;SDS011;69765;47.668;19.326;2023-04-28T23:55:34;2.90;;;2.20;;
80423;SDS011;69765;47.668;19.326;2023-04-28T23:58:36;2.70;;;1.73;;
